createdAt,value
2019-03-24T00:00:08.124Z,14.10
2019-03-24T00:02:36.962Z,14.00
2019-03-24T00:05:06.842Z,13.90
2019-03-24T00:07:35.658Z,13.80
2019-03-24T00:10:06.920Z,13.80
2019-03-24T00:12:35.736Z,13.80
2019-03-24T00:15:07.401Z,13.70
2019-03-24T00:17:36.253Z,13.70
2019-03-24T00:20:06.517Z,13.70
2019-03-24T00:22:35.267Z,13.70
2019-03-24T00:25:05.529Z,13.60
2019-03-24T00:27:34.354Z,13.60
2019-03-24T00:30:03.517Z,13.70
2019-03-24T00:32:32.342Z,13.80
2019-03-24T00:35:01.205Z,13.60
2019-03-24T00:37:30.111Z,13.50
2019-03-24T00:39:58.924Z,13.30
2019-03-24T00:42:27.805Z,13.20
2019-03-24T00:44:56.625Z,12.90
2019-03-24T00:47:25.484Z,12.80
2019-03-24T00:49:54.298Z,12.80
2019-03-24T00:52:23.167Z,12.90
2019-03-24T00:54:51.993Z,12.90
2019-03-24T00:57:20.854Z,13.00
2019-03-24T00:59:49.695Z,12.90
2019-03-24T01:02:18.563Z,12.70
2019-03-24T01:04:47.398Z,12.70
2019-03-24T01:07:16.258Z,12.50
2019-03-24T01:09:45.085Z,12.50
2019-03-24T01:12:13.955Z,12.40
2019-03-24T01:14:42.818Z,12.50
2019-03-24T01:17:11.643Z,12.50
2019-03-24T01:19:40.510Z,12.50
2019-03-24T01:22:09.337Z,12.50
2019-03-24T01:24:38.228Z,12.60
2019-03-24T01:27:07.051Z,12.60
2019-03-24T01:29:35.901Z,12.60
2019-03-24T01:32:04.736Z,12.60
2019-03-24T01:34:33.591Z,12.60
2019-03-24T01:37:02.416Z,12.50
2019-03-24T01:39:31.254Z,12.50
2019-03-24T01:42:00.125Z,12.50
2019-03-24T01:44:28.933Z,12.50
2019-03-24T01:46:57.804Z,12.50
2019-03-24T01:49:26.619Z,12.50
2019-03-24T01:51:55.477Z,12.50
2019-03-24T01:54:24.230Z,12.60
2019-03-24T01:56:53.097Z,12.60
2019-03-24T01:59:22.028Z,12.60
2019-03-24T02:01:50.813Z,12.60
2019-03-24T02:04:19.643Z,12.50
2019-03-24T02:06:48.491Z,12.50
2019-03-24T02:09:17.332Z,12.60
2019-03-24T02:11:50.890Z,12.50
2019-03-24T02:14:22.730Z,12.50
2019-03-24T02:16:54.648Z,12.40
2019-03-24T02:19:26.628Z,12.40
2019-03-24T02:21:59.451Z,12.30
2019-03-24T02:24:31.297Z,12.30
2019-03-24T02:27:00.114Z,12.30
2019-03-24T02:29:28.978Z,12.40
2019-03-24T02:31:57.820Z,12.30
2019-03-24T02:34:26.697Z,12.20
2019-03-24T02:36:55.508Z,12.20
2019-03-24T02:39:24.367Z,12.30
2019-03-24T02:41:53.212Z,12.40
2019-03-24T02:44:21.993Z,12.50
2019-03-24T02:46:50.755Z,12.50
2019-03-24T02:49:19.618Z,12.30
2019-03-24T02:51:48.433Z,12.30
2019-03-24T02:54:17.303Z,12.20
2019-03-24T02:56:46.158Z,12.10
2019-03-24T02:59:15.032Z,12.00
2019-03-24T03:01:43.888Z,12.00
2019-03-24T03:04:12.709Z,12.00
2019-03-24T03:06:41.583Z,12.10
2019-03-24T03:09:10.406Z,12.30
2019-03-24T03:11:40.684Z,12.40
2019-03-24T03:14:09.449Z,12.40
2019-03-24T03:16:39.342Z,12.30
2019-03-24T03:19:08.624Z,12.30
2019-03-24T03:21:37.496Z,12.50
2019-03-24T03:24:06.334Z,12.70
2019-03-24T03:26:35.213Z,12.70
2019-03-24T03:29:04.025Z,12.60
2019-03-24T03:31:32.857Z,12.50
2019-03-24T03:34:01.721Z,12.50
2019-03-24T03:36:30.546Z,12.40
2019-03-24T03:38:59.417Z,12.40
2019-03-24T03:41:28.252Z,12.40
2019-03-24T03:43:57.110Z,12.40
2019-03-24T03:46:25.953Z,12.40
2019-03-24T03:48:54.809Z,12.30
2019-03-24T03:51:23.634Z,12.40
2019-03-24T03:53:52.491Z,12.40
2019-03-24T03:56:21.603Z,12.40
2019-03-24T03:58:50.461Z,12.40
2019-03-24T04:01:19.322Z,12.50
2019-03-24T04:03:48.156Z,12.50
2019-03-24T04:06:17.025Z,12.50
2019-03-24T04:08:45.847Z,12.40
2019-03-24T04:11:14.690Z,12.40
2019-03-24T04:13:43.529Z,12.30
2019-03-24T04:16:12.364Z,12.30
2019-03-24T04:18:41.213Z,12.20
2019-03-24T04:21:10.055Z,12.20
2019-03-24T04:23:38.895Z,12.10
2019-03-24T04:26:07.755Z,12.00
2019-03-24T04:28:36.591Z,11.90
2019-03-24T04:31:05.437Z,11.90
2019-03-24T04:33:34.260Z,11.80
2019-03-24T04:36:03.124Z,11.80
2019-03-24T04:38:32.001Z,11.70
2019-03-24T04:41:00.851Z,11.70
2019-03-24T04:43:29.707Z,11.80
2019-03-24T04:45:58.535Z,11.80
2019-03-24T04:48:27.393Z,11.70
2019-03-24T04:50:56.229Z,11.70
2019-03-24T04:53:25.075Z,11.70
2019-03-24T04:55:53.916Z,11.60
2019-03-24T04:58:22.780Z,11.60
2019-03-24T05:00:51.617Z,11.50
2019-03-24T05:03:20.469Z,11.40
2019-03-24T05:05:49.555Z,11.30
2019-03-24T05:08:19.220Z,11.30
2019-03-24T05:10:48.081Z,11.30
2019-03-24T05:13:16.927Z,11.30
2019-03-24T05:15:45.776Z,11.50
2019-03-24T05:18:14.607Z,11.40
2019-03-24T05:20:43.480Z,11.50
2019-03-24T05:23:12.306Z,11.50
2019-03-24T05:25:41.173Z,11.50
2019-03-24T05:28:09.991Z,11.50
2019-03-24T05:30:38.856Z,11.60
2019-03-24T05:33:07.602Z,11.80
2019-03-24T05:35:36.359Z,11.90
2019-03-24T05:38:05.203Z,12.00
2019-03-24T05:40:34.069Z,12.20
2019-03-24T05:43:02.896Z,12.50
2019-03-24T05:45:31.751Z,13.00
2019-03-24T05:48:00.605Z,13.80
2019-03-24T05:50:29.426Z,14.80
2019-03-24T05:52:58.301Z,15.40
2019-03-24T05:55:27.107Z,15.90
2019-03-24T05:57:55.980Z,16.80
2019-03-24T06:00:24.799Z,16.90
2019-03-24T06:02:53.648Z,17.20
2019-03-24T06:05:22.486Z,17.70
2019-03-24T06:07:51.340Z,18.20
2019-03-24T06:10:20.171Z,18.40
2019-03-24T06:12:48.993Z,18.00
2019-03-24T06:15:17.841Z,17.40
2019-03-24T06:17:48.013Z,16.40
2019-03-24T06:20:17.158Z,16.40
2019-03-24T06:22:45.985Z,17.60
2019-03-24T06:25:14.818Z,18.80
2019-03-24T06:27:43.657Z,19.80
2019-03-24T06:30:14.077Z,20.30
2019-03-24T06:32:42.951Z,20.80
2019-03-24T06:35:11.869Z,21.30
2019-03-24T06:37:40.669Z,22.00
2019-03-24T06:40:09.607Z,22.40
2019-03-24T06:42:38.463Z,23.20
2019-03-24T06:45:08.672Z,23.30
2019-03-24T06:47:37.525Z,23.60
2019-03-24T06:50:08.220Z,23.70
2019-03-24T06:52:37.047Z,23.80
2019-03-24T06:55:06.008Z,24.00
2019-03-24T06:57:34.765Z,23.90
2019-03-24T07:00:04.538Z,24.40
2019-03-24T07:02:33.361Z,24.50
2019-03-24T07:05:02.219Z,24.80
2019-03-24T07:07:31.043Z,25.00
2019-03-24T07:09:59.911Z,25.20
2019-03-24T07:12:28.730Z,25.70
2019-03-24T07:14:57.598Z,25.90
2019-03-24T07:17:26.404Z,26.30
2019-03-24T07:19:55.230Z,26.60
2019-03-24T07:22:24.107Z,26.80
2019-03-24T07:24:52.928Z,27.70
2019-03-24T07:27:21.798Z,27.70
2019-03-24T07:29:50.635Z,28.10
2019-03-24T07:32:19.492Z,28.30
2019-03-24T07:34:48.339Z,28.60
2019-03-24T07:37:17.196Z,28.80
2019-03-24T07:39:46.021Z,28.80
2019-03-24T07:42:14.871Z,29.10
2019-03-24T07:44:43.707Z,29.80
2019-03-24T07:47:13.866Z,29.70
2019-03-24T07:49:43.522Z,30.50
2019-03-24T07:52:12.478Z,30.30
2019-03-24T07:54:41.315Z,30.30
2019-03-24T07:57:10.686Z,30.40
2019-03-24T07:59:39.572Z,30.10
2019-03-24T08:02:08.407Z,30.00
2019-03-24T08:04:37.283Z,30.00
2019-03-24T08:07:06.109Z,30.30
2019-03-24T08:09:37.128Z,31.20
2019-03-24T08:12:05.395Z,30.90
2019-03-24T08:14:34.278Z,31.30
2019-03-24T08:17:03.098Z,31.10
2019-03-24T08:19:31.967Z,31.40
2019-03-24T08:22:00.803Z,31.60
2019-03-24T08:24:29.647Z,31.80
2019-03-24T08:26:58.487Z,31.90
2019-03-24T08:29:27.344Z,31.70
2019-03-24T08:31:56.209Z,31.90
2019-03-24T08:34:25.028Z,32.60
2019-03-24T08:36:53.887Z,32.90
2019-03-24T08:39:22.734Z,32.40
2019-03-24T08:41:51.576Z,32.50
2019-03-24T08:44:20.397Z,32.80
2019-03-24T08:46:49.248Z,32.90
2019-03-24T08:49:18.074Z,33.00
2019-03-24T08:51:46.973Z,32.60
2019-03-24T08:54:15.797Z,33.20
2019-03-24T08:56:44.658Z,33.60
2019-03-24T08:59:13.479Z,33.50
2019-03-24T09:01:42.353Z,33.40
2019-03-24T09:04:11.214Z,33.40
2019-03-24T09:06:40.142Z,33.50
2019-03-24T09:09:09.010Z,34.10
2019-03-24T09:11:37.764Z,34.30
2019-03-24T09:14:06.635Z,33.80
2019-03-24T09:16:35.468Z,33.90
2019-03-24T09:19:04.327Z,33.80
2019-03-24T09:21:33.161Z,33.70
2019-03-24T09:24:02.018Z,34.30
2019-03-24T09:26:30.864Z,34.10
2019-03-24T09:28:59.704Z,34.70
2019-03-24T09:31:28.556Z,35.00
2019-03-24T09:33:57.321Z,34.60
2019-03-24T09:36:26.176Z,34.60
2019-03-24T09:38:55.015Z,34.20
2019-03-24T09:41:23.878Z,34.50
2019-03-24T09:43:52.634Z,34.50
2019-03-24T09:46:21.501Z,35.00
2019-03-24T09:48:50.318Z,34.90
2019-03-24T09:51:21.118Z,34.90
2019-03-24T09:53:50.474Z,34.40
2019-03-24T09:56:19.292Z,34.60
2019-03-24T09:58:48.155Z,35.60
2019-03-24T10:01:16.971Z,35.50
2019-03-24T10:03:45.819Z,35.10
2019-03-24T10:06:14.691Z,35.40
2019-03-24T10:08:47.328Z,35.30
2019-03-24T10:11:14.028Z,35.40
2019-03-24T10:13:42.873Z,35.40
2019-03-24T10:16:11.707Z,35.50
2019-03-24T10:18:40.583Z,35.60
2019-03-24T10:21:09.402Z,35.90
2019-03-24T10:23:38.284Z,35.90
2019-03-24T10:26:07.157Z,35.80
2019-03-24T10:28:35.934Z,36.10
2019-03-24T10:31:04.798Z,35.90
2019-03-24T10:33:33.616Z,36.10
2019-03-24T10:36:02.492Z,36.00
2019-03-24T10:38:31.321Z,35.90
2019-03-24T10:41:00.173Z,36.30
2019-03-24T10:43:28.987Z,35.50
2019-03-24T10:45:57.840Z,35.60
2019-03-24T10:48:33.698Z,35.90
2019-03-24T10:50:57.156Z,35.50
2019-03-24T10:53:25.930Z,35.60
2019-03-24T10:55:54.758Z,35.90
2019-03-24T10:58:23.626Z,35.60
2019-03-24T11:00:52.473Z,36.10
2019-03-24T11:03:21.325Z,36.30
2019-03-24T11:05:50.153Z,35.30
2019-03-24T11:08:19.021Z,35.60
2019-03-24T11:10:47.840Z,35.90
2019-03-24T11:13:16.721Z,35.80
2019-03-24T11:15:45.565Z,35.60
2019-03-24T11:18:14.431Z,35.50
2019-03-24T11:20:43.292Z,34.70
2019-03-24T11:23:12.128Z,34.80
2019-03-24T11:25:40.981Z,35.40
2019-03-24T11:28:09.810Z,36.20
2019-03-24T11:30:38.670Z,35.50
2019-03-24T11:33:07.515Z,35.40
2019-03-24T11:35:36.370Z,34.80
2019-03-24T11:38:05.195Z,34.70
2019-03-24T11:40:34.060Z,35.20
2019-03-24T11:43:02.863Z,35.70
2019-03-24T11:45:31.727Z,35.90
2019-03-24T11:48:01.268Z,35.40
2019-03-24T11:50:30.152Z,35.20
2019-03-24T11:52:59.011Z,35.10
2019-03-24T11:55:27.838Z,34.60
2019-03-24T11:58:05.347Z,34.40
2019-03-24T12:00:33.033Z,33.50
2019-03-24T12:03:02.494Z,32.60
2019-03-24T12:05:31.333Z,32.10
2019-03-24T12:08:00.202Z,31.50
2019-03-24T12:10:29.040Z,30.90
2019-03-24T12:12:57.913Z,30.30
2019-03-24T12:15:26.733Z,29.80
2019-03-24T12:17:55.599Z,29.70
2019-03-24T12:20:24.404Z,29.70
2019-03-24T12:22:53.250Z,29.20
2019-03-24T12:25:22.090Z,28.80
2019-03-24T12:27:50.955Z,28.90
2019-03-24T12:30:19.791Z,28.80
2019-03-24T12:32:48.663Z,28.40
2019-03-24T12:35:25.627Z,28.40
2019-03-24T12:37:54.757Z,28.30
2019-03-24T12:40:23.582Z,28.20
2019-03-24T12:42:52.419Z,28.50
2019-03-24T12:45:21.281Z,28.50
2019-03-24T12:47:50.101Z,28.70
2019-03-24T12:50:18.954Z,28.60
2019-03-24T12:52:47.786Z,28.40
2019-03-24T12:55:16.636Z,28.20
2019-03-24T12:57:45.456Z,28.20
2019-03-24T13:00:16.190Z,28.30
2019-03-24T13:02:45.019Z,28.40
2019-03-24T13:05:13.937Z,28.10
2019-03-24T13:07:42.797Z,28.10
2019-03-24T13:10:12.614Z,28.10
2019-03-24T13:12:41.476Z,28.20
2019-03-24T13:15:10.492Z,28.30
2019-03-24T13:17:39.351Z,28.20
2019-03-24T13:20:19.511Z,28.00
2019-03-24T13:22:39.390Z,27.70
2019-03-24T13:25:08.617Z,27.70
2019-03-24T13:27:37.472Z,27.50
2019-03-24T13:30:07.535Z,27.40
2019-03-24T13:32:36.394Z,27.50
2019-03-24T13:35:05.944Z,27.70
2019-03-24T13:37:34.797Z,27.90
2019-03-24T13:40:03.724Z,27.60
2019-03-24T13:42:32.585Z,27.60
2019-03-24T13:45:01.430Z,27.50
2019-03-24T13:47:30.287Z,27.50
2019-03-24T13:49:59.132Z,27.80
2019-03-24T13:52:28.002Z,27.80
2019-03-24T13:54:56.816Z,27.80
2019-03-24T13:57:25.636Z,27.80
2019-03-24T13:59:54.502Z,27.90
2019-03-24T14:02:23.323Z,27.60
2019-03-24T14:04:53.786Z,27.60
2019-03-24T14:07:22.613Z,27.70
2019-03-24T14:09:51.459Z,27.60
2019-03-24T14:12:20.334Z,27.50
2019-03-24T14:14:49.155Z,27.30
2019-03-24T14:17:18.017Z,27.20
2019-03-24T14:19:46.838Z,27.30
2019-03-24T14:22:15.702Z,27.40
2019-03-24T14:24:44.530Z,27.20
2019-03-24T14:27:13.380Z,27.30
2019-03-24T14:29:42.818Z,27.30
2019-03-24T14:32:11.611Z,27.10
2019-03-24T14:34:40.434Z,27.20
2019-03-24T14:37:11.669Z,27.20
2019-03-24T14:39:39.752Z,27.20
2019-03-24T14:42:08.625Z,27.20
2019-03-24T14:44:38.471Z,27.00
2019-03-24T14:47:07.313Z,26.90
2019-03-24T14:49:36.167Z,26.90
2019-03-24T14:52:04.983Z,26.80
2019-03-24T14:54:33.865Z,26.70
2019-03-24T14:57:02.685Z,26.80
2019-03-24T14:59:31.546Z,26.40
2019-03-24T15:02:00.372Z,26.20
2019-03-24T15:04:29.238Z,26.10
2019-03-24T15:06:58.070Z,26.30
2019-03-24T15:09:26.912Z,26.30
2019-03-24T15:11:55.761Z,26.30
2019-03-24T15:14:24.619Z,26.20
2019-03-24T15:16:53.446Z,26.20
2019-03-24T15:19:22.483Z,26.10
2019-03-24T15:21:51.296Z,26.10
2019-03-24T15:24:21.128Z,26.00
2019-03-24T15:26:49.986Z,26.00
2019-03-24T15:29:18.822Z,26.00
2019-03-24T15:31:47.700Z,25.80
2019-03-24T15:34:16.513Z,25.70
2019-03-24T15:36:45.380Z,25.70
2019-03-24T15:39:14.201Z,25.70
2019-03-24T15:41:43.065Z,25.60
2019-03-24T15:44:11.894Z,25.50
2019-03-24T15:46:40.694Z,25.50
2019-03-24T15:49:09.538Z,25.20
2019-03-24T15:51:38.406Z,25.20
2019-03-24T15:54:07.262Z,25.30
2019-03-24T15:56:36.079Z,25.20
2019-03-24T15:59:04.923Z,25.10
2019-03-24T16:01:33.763Z,25.10
2019-03-24T16:04:02.612Z,25.10
2019-03-24T16:06:31.432Z,25.10
2019-03-24T16:09:00.317Z,25.00
2019-03-24T16:11:29.136Z,25.00
2019-03-24T16:13:57.983Z,25.00
2019-03-24T16:16:26.823Z,25.00
2019-03-24T16:18:55.686Z,24.90
2019-03-24T16:21:28.008Z,24.80
2019-03-24T16:23:55.008Z,24.70
2019-03-24T16:26:23.832Z,24.60
2019-03-24T16:28:52.696Z,24.60
2019-03-24T16:31:21.456Z,24.50
2019-03-24T16:33:50.331Z,24.50
2019-03-24T16:36:19.144Z,24.30
2019-03-24T16:38:49.200Z,24.30
2019-03-24T16:41:18.345Z,24.20
2019-03-24T16:43:47.220Z,24.20
2019-03-24T16:46:16.096Z,24.20
2019-03-24T16:48:44.917Z,24.10
2019-03-24T16:51:13.787Z,23.90
2019-03-24T16:53:42.595Z,23.90
2019-03-24T16:56:11.462Z,23.80
2019-03-24T16:58:40.294Z,23.70
2019-03-24T17:01:09.137Z,23.60
2019-03-24T17:03:37.972Z,23.50
2019-03-24T17:06:06.829Z,23.50
2019-03-24T17:08:35.650Z,23.40
2019-03-24T17:11:04.557Z,23.30
2019-03-24T17:13:33.434Z,23.30
2019-03-24T17:16:02.282Z,23.00
2019-03-24T17:18:31.095Z,22.90
2019-03-24T17:20:59.962Z,22.80
2019-03-24T17:23:28.815Z,22.50
2019-03-24T17:25:58.615Z,22.40
2019-03-24T17:28:27.456Z,22.30
2019-03-24T17:30:56.271Z,22.20
2019-03-24T17:33:25.180Z,22.00
2019-03-24T17:35:54.033Z,21.90
2019-03-24T17:38:22.890Z,21.80
2019-03-24T17:40:51.753Z,21.70
2019-03-24T17:43:20.603Z,21.60
2019-03-24T17:45:49.429Z,21.50
2019-03-24T17:48:18.306Z,21.40
2019-03-24T17:50:47.171Z,21.30
2019-03-24T17:53:16.061Z,21.30
2019-03-24T17:55:44.924Z,21.30
2019-03-24T17:58:13.779Z,21.20
2019-03-24T18:00:46.319Z,21.10
2019-03-24T18:03:15.205Z,21.00
2019-03-24T18:05:44.031Z,21.00
2019-03-24T18:08:12.862Z,20.90
2019-03-24T18:10:41.717Z,20.80
2019-03-24T18:13:10.549Z,20.60
2019-03-24T18:15:39.406Z,20.50
2019-03-24T18:18:08.284Z,20.40
2019-03-24T18:20:37.457Z,20.20
2019-03-24T18:23:06.277Z,20.20
2019-03-24T18:25:35.186Z,20.10
2019-03-24T18:28:04.164Z,20.00
2019-03-24T18:30:33.040Z,20.00
2019-03-24T18:33:01.883Z,19.90
2019-03-24T18:35:30.713Z,19.90
2019-03-24T18:37:59.595Z,19.80
2019-03-24T18:40:28.425Z,19.80
2019-03-24T18:42:57.278Z,19.70
2019-03-24T18:45:26.110Z,19.70
2019-03-24T18:47:54.969Z,19.70
2019-03-24T18:50:23.808Z,19.70
2019-03-24T18:52:52.659Z,19.70
2019-03-24T18:55:21.540Z,19.60
2019-03-24T18:57:50.411Z,19.60
2019-03-24T19:00:20.595Z,19.50
2019-03-24T19:02:49.447Z,19.50
2019-03-24T19:05:18.299Z,19.50
2019-03-24T19:07:47.120Z,19.40
2019-03-24T19:10:16.376Z,19.30
2019-03-24T19:12:45.195Z,19.20
2019-03-24T19:15:16.111Z,19.20
2019-03-24T19:17:45.016Z,19.10
2019-03-24T19:20:13.979Z,18.90
2019-03-24T19:22:42.743Z,18.80
2019-03-24T19:25:12.115Z,18.80
2019-03-24T19:27:40.938Z,18.70
2019-03-24T19:30:12.519Z,18.70
2019-03-24T19:32:41.431Z,18.60
2019-03-24T19:35:10.637Z,18.50
2019-03-24T19:37:40.704Z,18.50
2019-03-24T19:40:27.198Z,18.30
2019-03-24T19:42:56.075Z,18.20
2019-03-24T19:45:25.008Z,18.20
2019-03-24T19:47:55.469Z,18.10
2019-03-24T19:50:24.280Z,18.20
2019-03-24T19:52:53.151Z,18.20
2019-03-24T19:55:21.981Z,18.10
2019-03-24T19:57:50.892Z,18.00
2019-03-24T20:00:19.728Z,18.00
2019-03-24T20:02:48.611Z,18.00
2019-03-24T20:05:17.393Z,18.00
2019-03-24T20:07:48.074Z,17.90
2019-03-24T20:10:16.720Z,17.80
2019-03-24T20:12:45.618Z,17.80
2019-03-24T20:15:14.480Z,17.80
2019-03-24T20:17:43.360Z,17.70
2019-03-24T20:20:12.505Z,17.60
2019-03-24T20:22:41.348Z,17.70
2019-03-24T20:25:10.335Z,17.70
2019-03-24T20:27:39.197Z,17.70
2019-03-24T20:30:10.981Z,17.60
2019-03-24T20:32:39.880Z,17.50
2019-03-24T20:35:09.323Z,17.50
2019-03-24T20:37:38.190Z,17.50
2019-03-24T20:40:07.649Z,17.40
2019-03-24T20:42:36.473Z,17.40
2019-03-24T20:45:09.558Z,17.30
2019-03-24T20:47:38.399Z,17.30
2019-03-24T20:50:08.251Z,17.40
2019-03-24T20:52:37.027Z,17.30
2019-03-24T20:55:08.423Z,17.30
2019-03-24T20:57:37.245Z,17.20
2019-03-24T21:00:08.689Z,17.10
2019-03-24T21:02:37.540Z,17.00
2019-03-24T21:05:06.878Z,17.00
2019-03-24T21:07:35.732Z,17.00
2019-03-24T21:10:06.541Z,17.00
2019-03-24T21:12:35.405Z,16.90
2019-03-24T21:15:08.234Z,16.90
2019-03-24T21:17:37.079Z,16.90
2019-03-24T21:20:07.305Z,16.80
2019-03-24T21:22:36.183Z,16.80
2019-03-24T21:25:06.552Z,16.80
2019-03-24T21:27:35.377Z,16.70
2019-03-24T21:30:08.374Z,16.50
2019-03-24T21:32:37.194Z,16.50
2019-03-24T21:35:06.959Z,16.50
2019-03-24T21:37:35.786Z,16.40
2019-03-24T21:40:06.780Z,16.40
2019-03-24T21:42:35.618Z,16.40
2019-03-24T21:45:06.978Z,16.40
2019-03-24T21:47:35.843Z,16.30
2019-03-24T21:50:06.719Z,16.20
2019-03-24T21:52:35.604Z,16.20
2019-03-24T21:55:05.345Z,16.10
2019-03-24T21:57:34.223Z,16.00
2019-03-24T22:00:03.889Z,16.10
2019-03-24T22:02:32.728Z,16.00
2019-03-24T22:05:01.544Z,16.00
2019-03-24T22:07:30.413Z,15.90
2019-03-24T22:09:59.241Z,15.90
2019-03-24T22:12:28.102Z,16.00
2019-03-24T22:14:56.928Z,16.00
2019-03-24T22:17:25.733Z,15.90
2019-03-24T22:19:54.565Z,15.90
2019-03-24T22:22:23.439Z,15.70
2019-03-24T22:24:52.288Z,15.70
2019-03-24T22:27:21.115Z,15.70
2019-03-24T22:29:49.974Z,15.70
2019-03-24T22:32:18.795Z,15.70
2019-03-24T22:34:47.669Z,15.70
2019-03-24T22:37:16.489Z,15.70
2019-03-24T22:39:45.366Z,15.70
2019-03-24T22:42:14.192Z,15.70
2019-03-24T22:44:47.696Z,15.60
2019-03-24T22:47:16.746Z,15.60
2019-03-24T22:49:45.600Z,15.60
2019-03-24T22:52:14.414Z,15.60
2019-03-24T22:54:43.370Z,15.60
2019-03-24T22:57:12.202Z,15.60
2019-03-24T22:59:41.006Z,15.60
2019-03-24T23:02:09.835Z,15.50
2019-03-24T23:04:38.910Z,15.40
2019-03-24T23:07:07.765Z,15.40
2019-03-24T23:09:36.600Z,15.30
2019-03-24T23:12:05.972Z,15.20
2019-03-24T23:14:34.805Z,15.10
2019-03-24T23:17:04.279Z,14.90
2019-03-24T23:19:33.323Z,14.80
2019-03-24T23:22:02.396Z,14.70
2019-03-24T23:24:31.624Z,14.70
2019-03-24T23:27:00.497Z,14.70
2019-03-24T23:29:29.361Z,14.60
2019-03-24T23:31:58.235Z,14.70
2019-03-24T23:34:27.083Z,14.70
2019-03-24T23:36:55.914Z,14.90
2019-03-24T23:39:24.787Z,14.80
2019-03-24T23:41:53.641Z,14.80
2019-03-24T23:44:22.506Z,14.70
2019-03-24T23:46:51.343Z,14.80
2019-03-24T23:49:20.212Z,14.70
2019-03-24T23:51:50.240Z,14.60
2019-03-24T23:54:26.991Z,14.60
2019-03-24T23:56:49.575Z,14.60
2019-03-24T23:59:18.609Z,14.60
